sensor_id;sensor_type;location;lat;lon;timestamp;P1;durP1;ratioP1;P2;durP2;ratioP2
46437;SDS011;32137;48.728;9.142;2023-06-10T00:01:45;7.18;;;5.25;;
46437;SDS011;32137;48.728;9.142;2023-06-10T00:04:12;8.50;;;6.03;;
46437;SDS011;32137;48.728;9.142;2023-06-10T00:06:38;8.75;;;6.32;;
46437;SDS011;32137;48.728;9.142;2023-06-10T00:09:04;7.85;;;5.93;;
46437;SDS011;32137;48.728;9.142;2023-06-10T00:11:31;9.43;;;6.10;;
46437;SDS011;32137;48.728;9.142;2023-06-10T00:13:57;7.45;;;6.22;;
46437;SDS011;32137;48.728;9.142;2023-06-10T00:16:23;8.93;;;5.43;;
46437;SDS011;32137;48.728;9.142;2023-06-10T00:18:49;6.03;;;5.43;;
46437;SDS011;32137;48.728;9.142;2023-06-10T00:21:16;7.05;;;6.35;;
46437;SDS011;32137;48.728;9.142;2023-06-10T00:23:42;8.40;;;5.95;;
46437;SDS011;32137;48.728;9.142;2023-06-10T00:26:08;10.15;;;5.53;;
46437;SDS011;32137;48.728;9.142;2023-06-10T00:28:34;7.93;;;5.85;;
46437;SDS011;32137;48.728;9.142;2023-06-10T00:31:00;10.38;;;6.45;;
46437;SDS011;32137;48.728;9.142;2023-06-10T00:33:25;11.65;;;6.15;;
46437;SDS011;32137;48.728;9.142;2023-06-10T00:35:51;8.52;;;6.35;;
46437;SDS011;32137;48.728;9.142;2023-06-10T00:38:17;7.88;;;6.03;;
46437;SDS011;32137;48.728;9.142;2023-06-10T00:40:42;8.73;;;6.47;;
46437;SDS011;32137;48.728;9.142;2023-06-10T00:43:08;7.80;;;5.50;;
46437;SDS011;32137;48.728;9.142;2023-06-10T00:45:34;6.63;;;5.22;;
46437;SDS011;32137;48.728;9.142;2023-06-10T00:48:00;7.25;;;5.68;;
46437;SDS011;32137;48.728;9.142;2023-06-10T00:50:26;7.47;;;5.75;;
46437;SDS011;32137;48.728;9.142;2023-06-10T00:52:53;9.40;;;6.35;;
46437;SDS011;32137;48.728;9.142;2023-06-10T00:55:19;7.03;;;6.10;;
46437;SDS011;32137;48.728;9.142;2023-06-10T00:57:45;6.00;;;5.40;;
46437;SDS011;32137;48.728;9.142;2023-06-10T01:00:13;7.97;;;6.93;;
46437;SDS011;32137;48.728;9.142;2023-06-10T01:02:40;8.05;;;6.47;;
46437;SDS011;32137;48.728;9.142;2023-06-10T01:05:06;8.65;;;6.28;;
46437;SDS011;32137;48.728;9.142;2023-06-10T01:07:35;8.95;;;6.72;;
46437;SDS011;32137;48.728;9.142;2023-06-10T01:10:25;10.48;;;7.28;;
46437;SDS011;32137;48.728;9.142;2023-06-10T01:13:02;10.05;;;6.88;;
46437;SDS011;32137;48.728;9.142;2023-06-10T01:15:33;11.82;;;7.07;;
46437;SDS011;32137;48.728;9.142;2023-06-10T01:20:28;10.45;;;7.40;;
46437;SDS011;32137;48.728;9.142;2023-06-10T01:22:57;12.77;;;6.38;;
46437;SDS011;32137;48.728;9.142;2023-06-10T01:25:24;8.23;;;6.95;;
46437;SDS011;32137;48.728;9.142;2023-06-10T01:30:30;8.18;;;6.85;;
46437;SDS011;32137;48.728;9.142;2023-06-10T01:33:02;8.23;;;6.75;;
46437;SDS011;32137;48.728;9.142;2023-06-10T01:35:31;9.43;;;7.38;;
46437;SDS011;32137;48.728;9.142;2023-06-10T01:38:00;7.90;;;7.10;;
46437;SDS011;32137;48.728;9.142;2023-06-10T01:40:27;11.60;;;6.45;;
46437;SDS011;32137;48.728;9.142;2023-06-10T01:42:54;11.57;;;7.05;;
46437;SDS011;32137;48.728;9.142;2023-06-10T01:45:20;8.32;;;7.45;;
46437;SDS011;32137;48.728;9.142;2023-06-10T01:47:45;20.23;;;6.72;;
46437;SDS011;32137;48.728;9.142;2023-06-10T01:50:11;7.95;;;6.90;;
46437;SDS011;32137;48.728;9.142;2023-06-10T01:52:37;10.73;;;6.85;;
46437;SDS011;32137;48.728;9.142;2023-06-10T01:55:03;10.52;;;6.68;;
46437;SDS011;32137;48.728;9.142;2023-06-10T01:57:29;9.38;;;6.80;;
46437;SDS011;32137;48.728;9.142;2023-06-10T01:59:55;10.93;;;7.88;;
46437;SDS011;32137;48.728;9.142;2023-06-10T02:02:20;8.43;;;7.05;;
46437;SDS011;32137;48.728;9.142;2023-06-10T02:04:47;7.65;;;6.18;;
46437;SDS011;32137;48.728;9.142;2023-06-10T02:07:12;9.60;;;7.00;;
46437;SDS011;32137;48.728;9.142;2023-06-10T02:09:38;7.35;;;6.10;;
46437;SDS011;32137;48.728;9.142;2023-06-10T02:12:04;8.13;;;6.80;;
46437;SDS011;32137;48.728;9.142;2023-06-10T02:14:31;10.55;;;6.63;;
46437;SDS011;32137;48.728;9.142;2023-06-10T02:16:57;10.57;;;6.40;;
46437;SDS011;32137;48.728;9.142;2023-06-10T02:19:23;7.85;;;6.43;;
46437;SDS011;32137;48.728;9.142;2023-06-10T02:21:52;12.52;;;8.07;;
46437;SDS011;32137;48.728;9.142;2023-06-10T02:24:18;8.98;;;6.38;;
46437;SDS011;32137;48.728;9.142;2023-06-10T02:26:43;8.80;;;6.47;;
46437;SDS011;32137;48.728;9.142;2023-06-10T02:29:10;10.18;;;5.65;;
46437;SDS011;32137;48.728;9.142;2023-06-10T02:31:35;10.82;;;7.13;;
46437;SDS011;32137;48.728;9.142;2023-06-10T02:34:02;10.32;;;6.75;;
46437;SDS011;32137;48.728;9.142;2023-06-10T02:36:28;11.23;;;6.90;;
46437;SDS011;32137;48.728;9.142;2023-06-10T02:38:54;8.52;;;6.55;;
46437;SDS011;32137;48.728;9.142;2023-06-10T02:41:20;7.88;;;6.78;;
46437;SDS011;32137;48.728;9.142;2023-06-10T02:43:46;9.48;;;6.93;;
46437;SDS011;32137;48.728;9.142;2023-06-10T02:46:12;10.20;;;7.35;;
46437;SDS011;32137;48.728;9.142;2023-06-10T02:48:41;10.05;;;6.30;;
46437;SDS011;32137;48.728;9.142;2023-06-10T02:51:10;9.45;;;6.32;;
46437;SDS011;32137;48.728;9.142;2023-06-10T02:53:36;8.48;;;5.82;;
46437;SDS011;32137;48.728;9.142;2023-06-10T02:56:01;10.13;;;6.13;;
46437;SDS011;32137;48.728;9.142;2023-06-10T02:58:27;13.52;;;6.30;;
46437;SDS011;32137;48.728;9.142;2023-06-10T03:00:52;8.90;;;6.80;;
46437;SDS011;32137;48.728;9.142;2023-06-10T03:03:18;8.82;;;6.30;;
46437;SDS011;32137;48.728;9.142;2023-06-10T03:05:44;7.18;;;5.63;;
46437;SDS011;32137;48.728;9.142;2023-06-10T03:08:09;8.20;;;6.18;;
46437;SDS011;32137;48.728;9.142;2023-06-10T03:10:35;6.75;;;6.05;;
46437;SDS011;32137;48.728;9.142;2023-06-10T03:13:01;8.00;;;6.43;;
46437;SDS011;32137;48.728;9.142;2023-06-10T03:15:26;8.15;;;6.20;;
46437;SDS011;32137;48.728;9.142;2023-06-10T03:17:53;8.27;;;6.00;;
46437;SDS011;32137;48.728;9.142;2023-06-10T03:20:19;7.30;;;6.18;;
46437;SDS011;32137;48.728;9.142;2023-06-10T03:22:46;8.40;;;6.32;;
46437;SDS011;32137;48.728;9.142;2023-06-10T03:25:12;9.43;;;6.68;;
46437;SDS011;32137;48.728;9.142;2023-06-10T03:27:40;6.70;;;5.70;;
46437;SDS011;32137;48.728;9.142;2023-06-10T03:30:07;7.32;;;5.97;;
46437;SDS011;32137;48.728;9.142;2023-06-10T03:32:34;6.57;;;5.88;;
46437;SDS011;32137;48.728;9.142;2023-06-10T03:35:00;7.78;;;6.97;;
46437;SDS011;32137;48.728;9.142;2023-06-10T03:37:26;6.85;;;6.05;;
46437;SDS011;32137;48.728;9.142;2023-06-10T03:39:51;9.63;;;6.60;;
46437;SDS011;32137;48.728;9.142;2023-06-10T03:42:17;8.15;;;6.80;;
46437;SDS011;32137;48.728;9.142;2023-06-10T03:44:43;9.52;;;6.30;;
46437;SDS011;32137;48.728;9.142;2023-06-10T03:47:08;10.07;;;6.70;;
46437;SDS011;32137;48.728;9.142;2023-06-10T03:49:34;7.57;;;6.57;;
46437;SDS011;32137;48.728;9.142;2023-06-10T03:52:01;7.32;;;5.75;;
46437;SDS011;32137;48.728;9.142;2023-06-10T03:54:27;8.15;;;6.97;;
46437;SDS011;32137;48.728;9.142;2023-06-10T03:56:52;8.73;;;6.28;;
46437;SDS011;32137;48.728;9.142;2023-06-10T03:59:18;8.75;;;6.40;;
46437;SDS011;32137;48.728;9.142;2023-06-10T04:01:44;7.82;;;6.25;;
46437;SDS011;32137;48.728;9.142;2023-06-10T04:04:11;7.95;;;6.03;;
46437;SDS011;32137;48.728;9.142;2023-06-10T04:06:40;9.65;;;7.03;;
46437;SDS011;32137;48.728;9.142;2023-06-10T04:09:06;8.43;;;6.60;;
46437;SDS011;32137;48.728;9.142;2023-06-10T04:11:32;7.10;;;6.03;;
46437;SDS011;32137;48.728;9.142;2023-06-10T04:13:58;8.45;;;5.30;;
46437;SDS011;32137;48.728;9.142;2023-06-10T04:16:24;6.72;;;5.65;;
46437;SDS011;32137;48.728;9.142;2023-06-10T04:18:49;7.93;;;6.28;;
46437;SDS011;32137;48.728;9.142;2023-06-10T04:21:15;7.97;;;6.35;;
46437;SDS011;32137;48.728;9.142;2023-06-10T04:23:41;8.55;;;5.35;;
46437;SDS011;32137;48.728;9.142;2023-06-10T04:26:07;9.95;;;5.63;;
46437;SDS011;32137;48.728;9.142;2023-06-10T04:28:32;7.45;;;5.90;;
46437;SDS011;32137;48.728;9.142;2023-06-10T04:30:58;7.53;;;5.82;;
46437;SDS011;32137;48.728;9.142;2023-06-10T04:33:24;7.07;;;5.80;;
46437;SDS011;32137;48.728;9.142;2023-06-10T04:35:49;6.72;;;5.45;;
46437;SDS011;32137;48.728;9.142;2023-06-10T04:38:15;6.20;;;5.22;;
46437;SDS011;32137;48.728;9.142;2023-06-10T04:40:41;6.30;;;4.97;;
46437;SDS011;32137;48.728;9.142;2023-06-10T04:43:06;7.63;;;5.80;;
46437;SDS011;32137;48.728;9.142;2023-06-10T04:45:32;6.55;;;5.40;;
46437;SDS011;32137;48.728;9.142;2023-06-10T04:47:58;6.70;;;4.85;;
46437;SDS011;32137;48.728;9.142;2023-06-10T04:50:23;6.88;;;5.25;;
46437;SDS011;32137;48.728;9.142;2023-06-10T04:52:49;5.63;;;5.05;;
46437;SDS011;32137;48.728;9.142;2023-06-10T04:55:15;6.57;;;5.80;;
46437;SDS011;32137;48.728;9.142;2023-06-10T04:57:41;7.00;;;5.63;;
46437;SDS011;32137;48.728;9.142;2023-06-10T05:00:06;8.13;;;5.25;;
46437;SDS011;32137;48.728;9.142;2023-06-10T05:02:33;6.95;;;5.03;;
46437;SDS011;32137;48.728;9.142;2023-06-10T05:04:59;6.80;;;5.25;;
46437;SDS011;32137;48.728;9.142;2023-06-10T05:07:24;9.27;;;5.43;;
46437;SDS011;32137;48.728;9.142;2023-06-10T05:09:50;5.32;;;4.82;;
46437;SDS011;32137;48.728;9.142;2023-06-10T05:12:15;8.50;;;5.22;;
46437;SDS011;32137;48.728;9.142;2023-06-10T05:14:41;5.68;;;4.63;;
46437;SDS011;32137;48.728;9.142;2023-06-10T05:17:06;7.15;;;5.43;;
46437;SDS011;32137;48.728;9.142;2023-06-10T05:19:32;9.48;;;5.35;;
46437;SDS011;32137;48.728;9.142;2023-06-10T05:21:58;6.40;;;5.00;;
46437;SDS011;32137;48.728;9.142;2023-06-10T05:24:23;7.63;;;4.85;;
46437;SDS011;32137;48.728;9.142;2023-06-10T05:26:49;6.38;;;5.13;;
46437;SDS011;32137;48.728;9.142;2023-06-10T05:29:15;6.32;;;4.78;;
46437;SDS011;32137;48.728;9.142;2023-06-10T05:31:41;8.02;;;5.82;;
46437;SDS011;32137;48.728;9.142;2023-06-10T05:34:06;6.82;;;4.97;;
46437;SDS011;32137;48.728;9.142;2023-06-10T05:36:32;5.03;;;4.50;;
46437;SDS011;32137;48.728;9.142;2023-06-10T05:38:58;8.27;;;6.30;;
46437;SDS011;32137;48.728;9.142;2023-06-10T05:41:23;6.28;;;5.10;;
46437;SDS011;32137;48.728;9.142;2023-06-10T05:43:50;6.78;;;5.82;;
46437;SDS011;32137;48.728;9.142;2023-06-10T05:46:16;6.32;;;5.25;;
46437;SDS011;32137;48.728;9.142;2023-06-10T05:48:41;8.05;;;4.80;;
46437;SDS011;32137;48.728;9.142;2023-06-10T05:51:07;8.63;;;5.13;;
46437;SDS011;32137;48.728;9.142;2023-06-10T05:53:32;11.55;;;5.75;;
46437;SDS011;32137;48.728;9.142;2023-06-10T05:55:58;6.95;;;5.68;;
46437;SDS011;32137;48.728;9.142;2023-06-10T05:58:24;12.30;;;5.63;;
46437;SDS011;32137;48.728;9.142;2023-06-10T06:00:49;9.55;;;5.15;;
46437;SDS011;32137;48.728;9.142;2023-06-10T06:03:15;8.70;;;5.10;;
46437;SDS011;32137;48.728;9.142;2023-06-10T06:05:42;7.07;;;5.30;;
46437;SDS011;32137;48.728;9.142;2023-06-10T06:08:07;7.03;;;5.97;;
46437;SDS011;32137;48.728;9.142;2023-06-10T06:10:33;11.10;;;5.60;;
46437;SDS011;32137;48.728;9.142;2023-06-10T06:12:59;8.30;;;5.55;;
46437;SDS011;32137;48.728;9.142;2023-06-10T06:15:25;19.40;;;5.88;;
46437;SDS011;32137;48.728;9.142;2023-06-10T06:17:51;13.50;;;6.65;;
46437;SDS011;32137;48.728;9.142;2023-06-10T06:20:21;13.20;;;6.05;;
46437;SDS011;32137;48.728;9.142;2023-06-10T06:22:47;26.13;;;6.38;;
46437;SDS011;32137;48.728;9.142;2023-06-10T06:25:13;17.90;;;5.30;;
46437;SDS011;32137;48.728;9.142;2023-06-10T06:27:39;17.85;;;7.53;;
46437;SDS011;32137;48.728;9.142;2023-06-10T06:30:04;8.45;;;6.00;;
46437;SDS011;32137;48.728;9.142;2023-06-10T06:32:30;9.88;;;5.22;;
46437;SDS011;32137;48.728;9.142;2023-06-10T06:34:56;8.68;;;5.05;;
46437;SDS011;32137;48.728;9.142;2023-06-10T06:37:22;6.00;;;5.32;;
46437;SDS011;32137;48.728;9.142;2023-06-10T06:39:51;10.30;;;5.40;;
46437;SDS011;32137;48.728;9.142;2023-06-10T06:42:18;6.30;;;4.82;;
46437;SDS011;32137;48.728;9.142;2023-06-10T06:44:44;6.00;;;5.40;;
46437;SDS011;32137;48.728;9.142;2023-06-10T06:47:10;6.25;;;5.18;;
46437;SDS011;32137;48.728;9.142;2023-06-10T06:49:35;7.55;;;6.15;;
46437;SDS011;32137;48.728;9.142;2023-06-10T06:52:01;13.98;;;8.07;;
46437;SDS011;32137;48.728;9.142;2023-06-10T06:54:27;9.98;;;6.25;;
46437;SDS011;32137;48.728;9.142;2023-06-10T06:56:52;7.07;;;6.07;;
46437;SDS011;32137;48.728;9.142;2023-06-10T06:59:18;24.02;;;13.85;;
46437;SDS011;32137;48.728;9.142;2023-06-10T07:01:44;5.50;;;4.97;;
46437;SDS011;32137;48.728;9.142;2023-06-10T07:04:10;16.08;;;6.15;;
46437;SDS011;32137;48.728;9.142;2023-06-10T07:06:36;6.32;;;5.10;;
46437;SDS011;32137;48.728;9.142;2023-06-10T07:09:03;6.75;;;5.72;;
46437;SDS011;32137;48.728;9.142;2023-06-10T07:11:28;7.13;;;5.80;;
46437;SDS011;32137;48.728;9.142;2023-06-10T07:13:55;6.28;;;5.10;;
46437;SDS011;32137;48.728;9.142;2023-06-10T07:16:20;9.00;;;6.13;;
46437;SDS011;32137;48.728;9.142;2023-06-10T07:18:46;6.15;;;5.53;;
46437;SDS011;32137;48.728;9.142;2023-06-10T07:21:12;7.40;;;5.78;;
46437;SDS011;32137;48.728;9.142;2023-06-10T07:23:37;7.47;;;5.80;;
46437;SDS011;32137;48.728;9.142;2023-06-10T07:26:06;8.38;;;5.82;;
46437;SDS011;32137;48.728;9.142;2023-06-10T07:28:32;8.98;;;5.75;;
46437;SDS011;32137;48.728;9.142;2023-06-10T07:30:58;7.60;;;5.32;;
46437;SDS011;32137;48.728;9.142;2023-06-10T07:33:23;8.38;;;5.22;;
46437;SDS011;32137;48.728;9.142;2023-06-10T07:35:49;5.78;;;4.70;;
46437;SDS011;32137;48.728;9.142;2023-06-10T07:38:14;6.55;;;5.85;;
46437;SDS011;32137;48.728;9.142;2023-06-10T07:40:41;8.00;;;5.18;;
46437;SDS011;32137;48.728;9.142;2023-06-10T07:43:07;9.13;;;4.57;;
46437;SDS011;32137;48.728;9.142;2023-06-10T07:45:32;5.80;;;5.18;;
46437;SDS011;32137;48.728;9.142;2023-06-10T07:47:58;9.00;;;5.43;;
46437;SDS011;32137;48.728;9.142;2023-06-10T07:50:23;5.32;;;4.82;;
46437;SDS011;32137;48.728;9.142;2023-06-10T07:52:49;5.38;;;4.85;;
46437;SDS011;32137;48.728;9.142;2023-06-10T07:55:15;9.65;;;5.07;;
46437;SDS011;32137;48.728;9.142;2023-06-10T07:57:40;6.80;;;4.85;;
46437;SDS011;32137;48.728;9.142;2023-06-10T08:00:06;5.10;;;4.53;;
46437;SDS011;32137;48.728;9.142;2023-06-10T08:02:33;7.40;;;4.60;;
46437;SDS011;32137;48.728;9.142;2023-06-10T08:04:58;5.35;;;4.85;;
46437;SDS011;32137;48.728;9.142;2023-06-10T08:07:24;6.68;;;5.25;;
46437;SDS011;32137;48.728;9.142;2023-06-10T08:09:50;6.95;;;5.40;;
46437;SDS011;32137;48.728;9.142;2023-06-10T08:12:15;6.40;;;5.10;;
46437;SDS011;32137;48.728;9.142;2023-06-10T08:14:41;8.32;;;4.75;;
46437;SDS011;32137;48.728;9.142;2023-06-10T08:17:07;7.03;;;5.38;;
46437;SDS011;32137;48.728;9.142;2023-06-10T08:19:32;7.20;;;6.03;;
46437;SDS011;32137;48.728;9.142;2023-06-10T08:21:58;5.63;;;4.70;;
46437;SDS011;32137;48.728;9.142;2023-06-10T08:24:24;5.95;;;5.35;;
46437;SDS011;32137;48.728;9.142;2023-06-10T08:26:49;6.70;;;5.22;;
46437;SDS011;32137;48.728;9.142;2023-06-10T08:29:15;6.90;;;6.20;;
46437;SDS011;32137;48.728;9.142;2023-06-10T08:31:41;8.85;;;5.47;;
46437;SDS011;32137;48.728;9.142;2023-06-10T08:34:08;5.93;;;5.32;;
46437;SDS011;32137;48.728;9.142;2023-06-10T08:36:33;5.63;;;5.05;;
46437;SDS011;32137;48.728;9.142;2023-06-10T08:38:59;8.25;;;5.25;;
46437;SDS011;32137;48.728;9.142;2023-06-10T08:41:25;6.65;;;5.47;;
46437;SDS011;32137;48.728;9.142;2023-06-10T08:46:29;6.32;;;5.20;;
46437;SDS011;32137;48.728;9.142;2023-06-10T08:48:57;9.45;;;5.45;;
46437;SDS011;32137;48.728;9.142;2023-06-10T08:51:27;7.07;;;5.57;;
46437;SDS011;32137;48.728;9.142;2023-06-10T08:53:58;8.45;;;5.60;;
46437;SDS011;32137;48.728;9.142;2023-06-10T08:56:29;6.75;;;5.28;;
46437;SDS011;32137;48.728;9.142;2023-06-10T08:58:56;7.07;;;5.00;;
46437;SDS011;32137;48.728;9.142;2023-06-10T09:01:23;5.88;;;4.72;;
46437;SDS011;32137;48.728;9.142;2023-06-10T09:03:50;5.93;;;5.32;;
46437;SDS011;32137;48.728;9.142;2023-06-10T09:06:16;7.03;;;5.28;;
46437;SDS011;32137;48.728;9.142;2023-06-10T09:08:43;5.88;;;4.85;;
46437;SDS011;32137;48.728;9.142;2023-06-10T09:11:09;6.25;;;4.75;;
46437;SDS011;32137;48.728;9.142;2023-06-10T09:13:34;8.60;;;5.50;;
46437;SDS011;32137;48.728;9.142;2023-06-10T09:16:00;8.38;;;4.93;;
46437;SDS011;32137;48.728;9.142;2023-06-10T09:18:30;5.88;;;4.90;;
46437;SDS011;32137;48.728;9.142;2023-06-10T09:20:56;17.17;;;6.30;;
46437;SDS011;32137;48.728;9.142;2023-06-10T09:23:21;10.82;;;5.40;;
46437;SDS011;32137;48.728;9.142;2023-06-10T09:25:53;7.00;;;4.70;;
46437;SDS011;32137;48.728;9.142;2023-06-10T09:28:22;8.77;;;5.05;;
46437;SDS011;32137;48.728;9.142;2023-06-10T09:30:48;7.00;;;5.00;;
46437;SDS011;32137;48.728;9.142;2023-06-10T09:33:14;5.32;;;4.78;;
46437;SDS011;32137;48.728;9.142;2023-06-10T09:35:50;6.05;;;5.45;;
46437;SDS011;32137;48.728;9.142;2023-06-10T09:38:22;5.65;;;4.68;;
46437;SDS011;32137;48.728;9.142;2023-06-10T09:40:51;5.18;;;4.47;;
46437;SDS011;32137;48.728;9.142;2023-06-10T09:43:18;5.95;;;4.78;;
46437;SDS011;32137;48.728;9.142;2023-06-10T09:45:47;8.27;;;4.28;;
46437;SDS011;32137;48.728;9.142;2023-06-10T09:48:13;7.60;;;5.05;;
46437;SDS011;32137;48.728;9.142;2023-06-10T09:50:42;10.32;;;4.53;;
46437;SDS011;32137;48.728;9.142;2023-06-10T09:53:09;7.13;;;4.82;;
46437;SDS011;32137;48.728;9.142;2023-06-10T09:55:39;4.75;;;4.30;;
46437;SDS011;32137;48.728;9.142;2023-06-10T09:58:05;7.07;;;4.75;;
46437;SDS011;32137;48.728;9.142;2023-06-10T10:00:32;6.88;;;4.25;;
46437;SDS011;32137;48.728;9.142;2023-06-10T10:02:58;7.70;;;4.90;;
46437;SDS011;32137;48.728;9.142;2023-06-10T10:05:24;4.97;;;3.88;;
46437;SDS011;32137;48.728;9.142;2023-06-10T10:07:49;6.28;;;4.10;;
46437;SDS011;32137;48.728;9.142;2023-06-10T10:10:17;5.38;;;4.03;;
46437;SDS011;32137;48.728;9.142;2023-06-10T10:12:46;5.38;;;4.25;;
46437;SDS011;32137;48.728;9.142;2023-06-10T10:15:13;6.63;;;3.90;;
46437;SDS011;32137;48.728;9.142;2023-06-10T10:20:32;8.20;;;4.80;;
46437;SDS011;32137;48.728;9.142;2023-06-10T10:23:00;20.92;;;5.47;;
46437;SDS011;32137;48.728;9.142;2023-06-10T10:25:29;4.25;;;3.70;;
46437;SDS011;32137;48.728;9.142;2023-06-10T10:28:08;5.47;;;4.30;;
46437;SDS011;32137;48.728;9.142;2023-06-10T10:30:37;10.50;;;4.93;;
46437;SDS011;32137;48.728;9.142;2023-06-10T10:33:09;6.88;;;4.20;;
46437;SDS011;32137;48.728;9.142;2023-06-10T10:35:40;5.82;;;4.28;;
46437;SDS011;32137;48.728;9.142;2023-06-10T10:38:06;4.80;;;4.05;;
46437;SDS011;32137;48.728;9.142;2023-06-10T10:40:33;4.93;;;4.07;;
46437;SDS011;32137;48.728;9.142;2023-06-10T10:42:59;6.07;;;4.07;;
46437;SDS011;32137;48.728;9.142;2023-06-10T10:45:27;5.63;;;4.25;;
46437;SDS011;32137;48.728;9.142;2023-06-10T10:47:54;6.75;;;3.95;;
46437;SDS011;32137;48.728;9.142;2023-06-10T10:50:21;6.63;;;4.20;;
46437;SDS011;32137;48.728;9.142;2023-06-10T10:52:54;9.73;;;4.32;;
46437;SDS011;32137;48.728;9.142;2023-06-10T10:55:23;6.05;;;4.43;;
46437;SDS011;32137;48.728;9.142;2023-06-10T11:00:49;5.97;;;4.28;;
46437;SDS011;32137;48.728;9.142;2023-06-10T11:03:15;3.90;;;3.50;;
46437;SDS011;32137;48.728;9.142;2023-06-10T11:05:45;5.30;;;3.70;;
46437;SDS011;32137;48.728;9.142;2023-06-10T11:08:15;5.97;;;4.13;;
46437;SDS011;32137;48.728;9.142;2023-06-10T11:11:02;6.13;;;4.38;;
46437;SDS011;32137;48.728;9.142;2023-06-10T11:16:29;5.28;;;4.20;;
46437;SDS011;32137;48.728;9.142;2023-06-10T11:18:55;5.40;;;3.78;;
46437;SDS011;32137;48.728;9.142;2023-06-10T11:21:22;4.65;;;3.40;;
46437;SDS011;32137;48.728;9.142;2023-06-10T11:23:49;11.13;;;4.43;;
46437;SDS011;32137;48.728;9.142;2023-06-10T11:26:19;5.35;;;4.10;;
46437;SDS011;32137;48.728;9.142;2023-06-10T11:31:22;4.35;;;3.95;;
46437;SDS011;32137;48.728;9.142;2023-06-10T11:34:00;10.43;;;3.80;;
46437;SDS011;32137;48.728;9.142;2023-06-10T11:36:28;4.93;;;3.63;;
46437;SDS011;32137;48.728;9.142;2023-06-10T11:38:58;5.55;;;3.38;;
46437;SDS011;32137;48.728;9.142;2023-06-10T11:41:25;4.63;;;4.20;;
46437;SDS011;32137;48.728;9.142;2023-06-10T11:43:52;3.90;;;3.42;;
46437;SDS011;32137;48.728;9.142;2023-06-10T11:46:19;7.50;;;3.75;;
46437;SDS011;32137;48.728;9.142;2023-06-10T11:48:57;4.97;;;3.92;;
46437;SDS011;32137;48.728;9.142;2023-06-10T11:51:28;4.65;;;3.85;;
46437;SDS011;32137;48.728;9.142;2023-06-10T11:53:55;5.03;;;3.72;;
46437;SDS011;32137;48.728;9.142;2023-06-10T11:56:22;5.60;;;3.83;;
46437;SDS011;32137;48.728;9.142;2023-06-10T12:01:31;4.10;;;3.53;;
46437;SDS011;32137;48.728;9.142;2023-06-10T12:04:04;4.00;;;3.53;;
46437;SDS011;32137;48.728;9.142;2023-06-10T12:06:37;6.95;;;3.40;;
46437;SDS011;32137;48.728;9.142;2023-06-10T12:09:03;4.75;;;3.63;;
46437;SDS011;32137;48.728;9.142;2023-06-10T12:11:29;5.47;;;4.07;;
46437;SDS011;32137;48.728;9.142;2023-06-10T12:13:54;4.50;;;4.10;;
46437;SDS011;32137;48.728;9.142;2023-06-10T12:16:20;4.00;;;3.40;;
46437;SDS011;32137;48.728;9.142;2023-06-10T12:18:46;4.53;;;3.40;;
46437;SDS011;32137;48.728;9.142;2023-06-10T12:21:18;4.88;;;3.83;;
46437;SDS011;32137;48.728;9.142;2023-06-10T12:24:01;5.90;;;3.70;;
46437;SDS011;32137;48.728;9.142;2023-06-10T12:26:35;3.20;;;2.85;;
46437;SDS011;32137;48.728;9.142;2023-06-10T12:34:28;3.67;;;3.38;;
46437;SDS011;32137;48.728;9.142;2023-06-10T12:36:54;6.18;;;3.40;;
46437;SDS011;32137;48.728;9.142;2023-06-10T12:39:19;4.07;;;3.50;;
46437;SDS011;32137;48.728;9.142;2023-06-10T12:41:49;3.80;;;2.92;;
46437;SDS011;32137;48.728;9.142;2023-06-10T12:44:16;9.27;;;4.00;;
46437;SDS011;32137;48.728;9.142;2023-06-10T12:46:41;44.75;;;6.70;;
46437;SDS011;32137;48.728;9.142;2023-06-10T12:49:07;14.85;;;5.32;;
46437;SDS011;32137;48.728;9.142;2023-06-10T12:51:33;6.22;;;3.63;;
46437;SDS011;32137;48.728;9.142;2023-06-10T12:53:59;29.13;;;5.47;;
46437;SDS011;32137;48.728;9.142;2023-06-10T12:56:25;4.53;;;3.50;;
46437;SDS011;32137;48.728;9.142;2023-06-10T12:58:51;5.05;;;3.40;;
46437;SDS011;32137;48.728;9.142;2023-06-10T13:01:16;5.60;;;3.50;;
46437;SDS011;32137;48.728;9.142;2023-06-10T13:03:42;6.22;;;3.55;;
46437;SDS011;32137;48.728;9.142;2023-06-10T13:06:07;6.82;;;3.55;;
46437;SDS011;32137;48.728;9.142;2023-06-10T13:08:33;18.27;;;3.75;;
46437;SDS011;32137;48.728;9.142;2023-06-10T13:10:58;3.78;;;3.10;;
46437;SDS011;32137;48.728;9.142;2023-06-10T13:13:24;6.50;;;2.75;;
46437;SDS011;32137;48.728;9.142;2023-06-10T13:15:50;5.70;;;2.92;;
46437;SDS011;32137;48.728;9.142;2023-06-10T13:18:16;4.57;;;3.50;;
46437;SDS011;32137;48.728;9.142;2023-06-10T13:20:43;5.53;;;3.17;;
46437;SDS011;32137;48.728;9.142;2023-06-10T13:23:09;3.55;;;3.03;;
46437;SDS011;32137;48.728;9.142;2023-06-10T13:25:35;4.30;;;3.30;;
46437;SDS011;32137;48.728;9.142;2023-06-10T13:28:00;3.63;;;3.10;;
46437;SDS011;32137;48.728;9.142;2023-06-10T13:30:26;3.53;;;2.78;;
46437;SDS011;32137;48.728;9.142;2023-06-10T13:32:52;6.15;;;3.05;;
46437;SDS011;32137;48.728;9.142;2023-06-10T13:35:17;6.50;;;3.40;;
46437;SDS011;32137;48.728;9.142;2023-06-10T13:37:43;3.90;;;3.50;;
46437;SDS011;32137;48.728;9.142;2023-06-10T13:40:09;4.68;;;2.97;;
46437;SDS011;32137;48.728;9.142;2023-06-10T13:42:35;4.20;;;3.55;;
46437;SDS011;32137;48.728;9.142;2023-06-10T13:45:01;8.10;;;3.30;;
46437;SDS011;32137;48.728;9.142;2023-06-10T13:47:28;7.05;;;3.85;;
46437;SDS011;32137;48.728;9.142;2023-06-10T13:49:53;10.50;;;3.65;;
46437;SDS011;32137;48.728;9.142;2023-06-10T13:52:19;16.13;;;3.80;;
46437;SDS011;32137;48.728;9.142;2023-06-10T13:54:44;6.13;;;3.10;;
46437;SDS011;32137;48.728;9.142;2023-06-10T13:57:10;3.88;;;3.33;;
46437;SDS011;32137;48.728;9.142;2023-06-10T13:59:36;3.53;;;2.88;;
46437;SDS011;32137;48.728;9.142;2023-06-10T14:02:01;4.72;;;3.22;;
46437;SDS011;32137;48.728;9.142;2023-06-10T14:04:27;3.75;;;3.40;;
46437;SDS011;32137;48.728;9.142;2023-06-10T14:06:52;5.15;;;3.40;;
46437;SDS011;32137;48.728;9.142;2023-06-10T14:09:18;1247.93;;;999.90;;
46437;SDS011;32137;48.728;9.142;2023-06-10T14:11:44;1376.05;;;999.90;;
46437;SDS011;32137;48.728;9.142;2023-06-10T14:14:10;1367.65;;;999.90;;
46437;SDS011;32137;48.728;9.142;2023-06-10T14:21:26;1381.95;;;999.90;;
46437;SDS011;32137;48.728;9.142;2023-06-10T14:23:52;1405.65;;;999.90;;
46437;SDS011;32137;48.728;9.142;2023-06-10T14:26:18;1394.88;;;999.90;;
46437;SDS011;32137;48.728;9.142;2023-06-10T14:31:12;1418.50;;;999.90;;
46437;SDS011;32137;48.728;9.142;2023-06-10T14:33:37;1417.85;;;999.90;;
46437;SDS011;32137;48.728;9.142;2023-06-10T14:36:04;1430.63;;;999.90;;
46437;SDS011;32137;48.728;9.142;2023-06-10T14:38:30;1439.47;;;999.90;;
46437;SDS011;32137;48.728;9.142;2023-06-10T14:43:21;1431.17;;;999.90;;
46437;SDS011;32137;48.728;9.142;2023-06-10T14:45:46;1438.72;;;999.90;;
46437;SDS011;32137;48.728;9.142;2023-06-10T14:48:12;1432.50;;;999.90;;
46437;SDS011;32137;48.728;9.142;2023-06-10T14:50:38;1414.90;;;999.90;;
46437;SDS011;32137;48.728;9.142;2023-06-10T14:57:56;1400.80;;;999.90;;
46437;SDS011;32137;48.728;9.142;2023-06-10T15:00:22;1415.53;;;999.90;;
46437;SDS011;32137;48.728;9.142;2023-06-10T15:02:49;1418.03;;;999.90;;
46437;SDS011;32137;48.728;9.142;2023-06-10T15:05:15;1404.93;;;999.90;;
46437;SDS011;32137;48.728;9.142;2023-06-10T15:07:42;1404.05;;;999.90;;
46437;SDS011;32137;48.728;9.142;2023-06-10T15:10:08;1394.95;;;999.90;;
46437;SDS011;32137;48.728;9.142;2023-06-10T15:12:34;1408.35;;;999.90;;
46437;SDS011;32137;48.728;9.142;2023-06-10T15:15:00;1404.13;;;999.90;;
46437;SDS011;32137;48.728;9.142;2023-06-10T15:17:26;1407.22;;;999.90;;
46437;SDS011;32137;48.728;9.142;2023-06-10T15:19:51;1398.70;;;999.90;;